createdAt,value
2023-01-08T00:02:22.032Z,99534.88
2023-01-08T00:06:26.439Z,99547.84
2023-01-08T00:10:29.481Z,99529.28
2023-01-08T00:14:32.525Z,99533.34
2023-01-08T00:18:35.622Z,99533.09
2023-01-08T00:22:39.999Z,99524.53
2023-01-08T00:26:43.149Z,99524.78
2023-01-08T00:30:46.225Z,99520.19
2023-01-08T00:34:49.342Z,99512.91
2023-01-08T00:38:53.710Z,99505.28
2023-01-08T00:42:56.913Z,99501.88
2023-01-08T00:46:59.951Z,99501.38
2023-01-08T00:51:04.097Z,99487.69
2023-01-08T00:55:09.772Z,99477.56
2023-01-08T00:59:12.801Z,99486.38
2023-01-08T01:03:15.948Z,99478.53
2023-01-08T01:07:18.959Z,99484.22
2023-01-08T01:11:25.200Z,99479.22
2023-01-08T01:15:28.236Z,99486.72
2023-01-08T01:19:31.448Z,99485.28
2023-01-08T01:23:34.467Z,99485.66
2023-01-08T01:27:39.068Z,99484.13
2023-01-08T01:31:42.107Z,99471.03
2023-01-08T01:35:45.129Z,99471.03
2023-01-08T01:39:48.209Z,99460.88
2023-01-08T01:43:53.260Z,99463.38
2023-01-08T01:48:00.821Z,99459.22
2023-01-08T01:52:06.807Z,99446.50
2023-01-08T01:56:10.366Z,99446.59
2023-01-08T02:00:15.708Z,99435.75
2023-01-08T02:04:18.778Z,99437.44
2023-01-08T02:08:29.378Z,99431.59
2023-01-08T02:12:37.209Z,99424.44
2023-01-08T02:16:48.699Z,99427.44
2023-01-08T02:20:57.132Z,99427.94
2023-01-08T02:25:09.610Z,99429.59
2023-01-08T02:29:17.644Z,99418.53
2023-01-08T02:33:20.726Z,99417.94
2023-01-08T02:37:23.984Z,99412.00
2023-01-08T02:41:37.779Z,99402.69
2023-01-08T02:45:47.382Z,99401.53
2023-01-08T02:49:55.270Z,99396.03
2023-01-08T02:54:01.501Z,99388.66
2023-01-08T02:58:05.820Z,99385.59
2023-01-08T03:02:11.815Z,99380.59
2023-01-08T03:06:19.121Z,99376.69
2023-01-08T03:10:26.395Z,99375.13
2023-01-08T03:14:33.757Z,99375.94
2023-01-08T03:18:45.409Z,99380.94
2023-01-08T03:22:52.780Z,99369.66
2023-01-08T03:26:59.948Z,99355.84
2023-01-08T03:31:04.406Z,99364.66
2023-01-08T03:35:11.049Z,99357.53
2023-01-08T03:39:18.118Z,99357.41
2023-01-08T03:43:21.171Z,99356.19
2023-01-08T03:47:25.754Z,99352.75
2023-01-08T03:51:30.151Z,99351.09
2023-01-08T03:55:33.221Z,99350.09
2023-01-08T03:59:36.245Z,99353.06
2023-01-08T04:03:39.270Z,99330.69
2023-01-08T04:07:43.719Z,99327.03
2023-01-08T04:11:46.766Z,99325.97
2023-01-08T04:15:50.403Z,99313.09
2023-01-08T04:19:53.543Z,99331.16
2023-01-08T04:23:58.456Z,99326.19
2023-01-08T04:28:01.486Z,99322.53
2023-01-08T04:32:04.748Z,99319.81
2023-01-08T04:36:08.077Z,99309.56
2023-01-08T04:40:12.931Z,99309.94
2023-01-08T04:44:16.019Z,99308.25
2023-01-08T04:48:19.072Z,99298.03
2023-01-08T04:52:22.130Z,99308.16
2023-01-08T04:56:26.818Z,99304.84
2023-01-08T05:00:29.884Z,99305.91
2023-01-08T05:04:33.070Z,99310.59
2023-01-08T05:08:36.565Z,99291.13
2023-01-08T05:12:40.921Z,99277.94
2023-01-08T05:16:44.081Z,99295.19
2023-01-08T05:20:47.223Z,99284.47
2023-01-08T05:24:50.284Z,99280.28
2023-01-08T05:28:54.862Z,99285.28
2023-01-08T05:32:57.935Z,99269.56
2023-01-08T05:37:00.942Z,99285.28
2023-01-08T05:41:04.209Z,99285.75
2023-01-08T05:45:09.778Z,99285.75
2023-01-08T05:49:12.873Z,99324.06
2023-01-08T05:53:15.954Z,99376.88
2023-01-08T05:57:18.956Z,99379.47
2023-01-08T06:01:23.421Z,99424.56
2023-01-08T06:05:26.567Z,99424.66
2023-01-08T06:09:29.627Z,99428.50
2023-01-08T06:13:32.965Z,99428.34
2023-01-08T06:17:37.376Z,99405.09
2023-01-08T06:21:40.419Z,99421.09
2023-01-08T06:25:43.429Z,99396.06
2023-01-08T06:29:46.511Z,99398.97
2023-01-08T06:33:50.877Z,99415.38
2023-01-08T06:37:55.927Z,99393.59
2023-01-08T06:41:59.079Z,99401.09
2023-01-08T06:46:02.089Z,99403.59
2023-01-08T06:50:07.106Z,99404.44
2023-01-08T06:54:11.587Z,99414.72
2023-01-08T06:58:16.473Z,99404.44
2023-01-08T07:02:20.210Z,99403.81
2023-01-08T07:06:25.218Z,99402.75
2023-01-08T07:10:28.347Z,99403.22
2023-01-08T07:14:31.367Z,99397.75
2023-01-08T07:18:34.488Z,99403.22
2023-01-08T07:22:38.922Z,99406.16
2023-01-08T07:26:42.100Z,99396.72
2023-01-08T07:30:45.173Z,99396.22
2023-01-08T07:34:48.366Z,99385.53
2023-01-08T07:38:52.771Z,99383.41
2023-01-08T07:42:59.753Z,99380.09
2023-01-08T07:47:02.796Z,99375.50
2023-01-08T07:51:07.874Z,99362.84
2023-01-08T07:55:12.410Z,99357.41
2023-01-08T07:59:15.465Z,99347.81
2023-01-08T08:03:18.636Z,99351.78
2023-01-08T08:07:21.818Z,99351.34
2023-01-08T08:11:26.571Z,99345.63
2023-01-08T08:15:29.709Z,99345.31
2023-01-08T08:19:32.801Z,99326.78
2023-01-08T08:24:04.865Z,99330.03
2023-01-08T08:28:12.582Z,99347.53
2023-01-08T08:32:15.995Z,99317.78
2023-01-08T08:36:19.479Z,99324.22
2023-01-08T08:40:23.001Z,99320.88
2023-01-08T08:44:27.432Z,99316.38
2023-01-08T08:48:30.575Z,99313.13
2023-01-08T08:52:34.244Z,99310.41
2023-01-08T08:56:37.223Z,99304.22
2023-01-08T09:00:43.449Z,99302.03
2023-01-08T09:04:46.541Z,99294.25
2023-01-08T09:08:49.662Z,99286.78
2023-01-08T09:12:54.234Z,99289.47
2023-01-08T09:16:58.821Z,99292.25
2023-01-08T09:21:06.212Z,99296.66
2023-01-08T09:25:09.729Z,99299.97
2023-01-08T09:29:13.092Z,99279.75
2023-01-08T09:33:17.932Z,99279.88
2023-01-08T09:37:23.263Z,99273.13
2023-01-08T09:41:30.696Z,99271.06
2023-01-08T09:45:39.332Z,99260.72
2023-01-08T09:49:47.839Z,99256.63
2023-01-08T09:53:56.467Z,99258.19
2023-01-08T09:58:03.317Z,99244.25
2023-01-08T10:02:14.564Z,99238.75
2023-01-08T10:06:19.333Z,99231.34
2023-01-08T10:11:47.663Z,99228.03
2023-01-08T10:15:51.238Z,99205.09
2023-01-08T10:19:54.654Z,99196.53
2023-01-08T10:23:59.000Z,99196.66
2023-01-08T10:28:04.509Z,99191.88
2023-01-08T10:32:12.103Z,99183.47
2023-01-08T10:36:16.862Z,99177.41
2023-01-08T10:40:26.807Z,99172.03
2023-01-08T10:44:30.414Z,99173.91
2023-01-08T10:48:38.329Z,99183.34
2023-01-08T10:52:41.808Z,99179.38
2023-01-08T10:56:46.299Z,99192.47
2023-01-08T11:00:49.472Z,99196.16
2023-01-08T11:04:53.740Z,99197.03
2023-01-08T11:08:59.878Z,99214.50
2023-01-08T11:13:07.303Z,99215.44
2023-01-08T11:17:12.650Z,99223.88
2023-01-08T11:21:21.602Z,99222.94
2023-01-08T11:25:31.611Z,99220.34
2023-01-08T11:29:42.424Z,99211.78
2023-01-08T11:33:48.947Z,99195.88
2023-01-08T11:37:53.872Z,99191.53
2023-01-08T11:42:22.150Z,99136.00
2023-01-08T11:46:34.768Z,99127.78
2023-01-08T11:50:45.281Z,99116.94
2023-01-08T11:55:06.144Z,99105.06
2023-01-08T11:59:18.804Z,99093.06
2023-01-08T12:03:31.748Z,99087.56
2023-01-08T12:07:43.273Z,99088.13
2023-01-08T12:11:53.621Z,99084.47
2023-01-08T12:16:05.840Z,99078.00
2023-01-08T12:20:22.207Z,99074.00
2023-01-08T12:24:44.472Z,99058.03
2023-01-08T12:29:08.447Z,99059.59
2023-01-08T12:33:21.213Z,99045.34
2023-01-08T12:37:30.849Z,99047.78
2023-01-08T12:41:36.912Z,99046.03
2023-01-08T12:45:44.784Z,99038.13
2023-01-08T12:49:52.673Z,99025.31
2023-01-08T12:54:04.136Z,99027.16
2023-01-08T12:58:22.488Z,99036.47
2023-01-08T13:02:37.488Z,99013.97
2023-01-08T13:06:51.349Z,99016.16
2023-01-08T13:10:56.708Z,99008.59
2023-01-08T13:14:59.889Z,99004.25
2023-01-08T13:19:04.687Z,99004.22
2023-01-08T13:23:08.090Z,98999.06
2023-01-08T13:27:28.457Z,98990.78
2023-01-08T13:31:40.990Z,98996.50
2023-01-08T13:35:44.138Z,99000.63
2023-01-08T13:39:47.213Z,98992.22
2023-01-08T13:43:57.813Z,98989.03
2023-01-08T13:48:01.776Z,98967.09
2023-01-08T13:52:05.380Z,98961.81
2023-01-08T13:56:10.769Z,98963.53
2023-01-08T14:00:25.045Z,98944.81
2023-01-08T14:04:28.639Z,98958.91
2023-01-08T14:08:31.670Z,98947.84
2023-01-08T14:12:36.264Z,98946.78
2023-01-08T14:16:41.869Z,98942.22
2023-01-08T14:20:49.963Z,98938.59
2023-01-08T14:24:56.704Z,98939.41
2023-01-08T14:29:01.648Z,98954.09
2023-01-08T14:33:13.593Z,98923.22
2023-01-08T14:37:18.019Z,98922.88
2023-01-08T14:41:47.614Z,98913.94
2023-01-08T14:45:54.738Z,98915.66
2023-01-08T14:49:59.315Z,98910.53
2023-01-08T14:54:05.706Z,98922.38
2023-01-08T14:58:16.102Z,98914.19
2023-01-08T15:02:27.116Z,98917.19
2023-01-08T15:06:34.139Z,98911.59
2023-01-08T15:10:40.689Z,98912.22
2023-01-08T15:14:44.533Z,98912.50
2023-01-08T15:18:49.868Z,98914.81
2023-01-08T15:22:54.284Z,98900.75
2023-01-08T15:26:58.482Z,98900.66
2023-01-08T15:31:01.504Z,98896.94
2023-01-08T15:35:15.336Z,98893.13
2023-01-08T15:39:19.768Z,98901.06
2023-01-08T15:43:23.861Z,98894.38
2023-01-08T15:47:27.003Z,98900.56
2023-01-08T15:51:32.707Z,98906.53
2023-01-08T15:55:37.727Z,98897.53
2023-01-08T15:59:41.018Z,98898.81
2023-01-08T16:03:44.905Z,98893.38
2023-01-08T16:07:48.138Z,98891.63
2023-01-08T16:11:52.702Z,98891.63
2023-01-08T16:15:55.948Z,98888.78
2023-01-08T16:19:58.970Z,98878.53
2023-01-08T16:24:02.062Z,98881.06
2023-01-08T16:28:06.746Z,98873.53
2023-01-08T16:32:09.854Z,98872.56
2023-01-08T16:36:13.017Z,98858.16
2023-01-08T16:40:16.821Z,98861.75
2023-01-08T16:44:22.672Z,98860.66
2023-01-08T16:48:25.690Z,98853.28
2023-01-08T16:52:28.780Z,98851.47
2023-01-08T16:56:32.030Z,98863.75
2023-01-08T17:00:37.126Z,98854.88
2023-01-08T17:04:40.376Z,98853.69
2023-01-08T17:08:44.086Z,98852.53
2023-01-08T17:12:47.200Z,98841.94
2023-01-08T17:16:51.614Z,98846.00
2023-01-08T17:20:55.569Z,98833.19
2023-01-08T17:24:58.638Z,98835.69
2023-01-08T17:29:01.851Z,98823.13
2023-01-08T17:33:06.219Z,98819.72
2023-01-08T17:37:09.378Z,98826.22
2023-01-08T17:41:32.498Z,98809.63
2023-01-08T17:45:35.666Z,98801.94
2023-01-08T17:49:40.261Z,98805.81
2023-01-08T17:53:43.279Z,98804.41
2023-01-08T17:57:46.473Z,98801.66
2023-01-08T18:01:50.206Z,98783.66
2023-01-08T18:05:54.971Z,98774.91
2023-01-08T18:09:58.034Z,98775.41
2023-01-08T18:14:03.363Z,98779.31
2023-01-08T18:18:06.838Z,98774.56
2023-01-08T18:22:12.239Z,98766.72
2023-01-08T18:26:17.568Z,98763.47
2023-01-08T18:30:20.630Z,98769.13
2023-01-08T18:34:23.784Z,98752.41
2023-01-08T18:38:28.226Z,98748.97
2023-01-08T18:42:32.797Z,98750.91
2023-01-08T18:46:36.249Z,98747.25
2023-01-08T18:50:40.421Z,98734.59
2023-01-08T18:54:44.832Z,98725.34
2023-01-08T18:58:47.902Z,98731.66
2023-01-08T19:02:52.332Z,98729.91
2023-01-08T19:06:55.524Z,98729.19
2023-01-08T19:11:04.253Z,98725.66
2023-01-08T19:15:08.354Z,98721.47
2023-01-08T19:19:11.457Z,98716.75
2023-01-08T19:23:15.015Z,98720.56
2023-01-08T19:27:19.402Z,98700.47
2023-01-08T19:31:22.562Z,98703.41
2023-01-08T19:35:25.637Z,98707.03
2023-01-08T19:39:29.919Z,98696.78
2023-01-08T19:43:43.072Z,98690.38
2023-01-08T19:47:46.368Z,98690.03
2023-01-08T19:51:49.413Z,98681.13
2023-01-08T19:55:52.456Z,98674.97
2023-01-08T19:59:56.983Z,98657.69
2023-01-08T20:04:00.130Z,98660.00
2023-01-08T20:08:03.291Z,98647.09
2023-01-08T20:12:07.293Z,98641.53
2023-01-08T20:16:14.051Z,98639.72
2023-01-08T20:20:17.627Z,98631.06
2023-01-08T20:24:20.717Z,98614.72
2023-01-08T20:28:23.779Z,98623.16
2023-01-08T20:32:28.177Z,98622.47
2023-01-08T20:36:33.823Z,98629.19
2023-01-08T20:40:37.856Z,98616.66
2023-01-08T20:44:41.073Z,98616.16
2023-01-08T20:48:48.567Z,98609.75
2023-01-08T20:52:51.659Z,98607.72
2023-01-08T20:56:56.610Z,98602.13
2023-01-08T21:01:06.104Z,98602.56
2023-01-08T21:05:11.047Z,98592.84
2023-01-08T21:09:16.638Z,98590.72
2023-01-08T21:13:19.731Z,98579.66
2023-01-08T21:17:22.806Z,98576.84
2023-01-08T21:21:32.486Z,98583.63
2023-01-08T21:25:36.010Z,98574.84
2023-01-08T21:29:39.056Z,98570.84
2023-01-08T21:33:43.119Z,98547.72
2023-01-08T21:37:47.839Z,98554.59
2023-01-08T21:42:08.178Z,98547.63
2023-01-08T21:46:11.665Z,98542.16
2023-01-08T21:50:14.870Z,98543.44
2023-01-08T21:54:19.203Z,98541.63
2023-01-08T21:58:23.235Z,98534.75
2023-01-08T22:02:26.501Z,98536.03
2023-01-08T22:06:29.462Z,98533.66
2023-01-08T22:10:33.883Z,98525.53
2023-01-08T22:14:36.927Z,98519.94
2023-01-08T22:18:39.918Z,98516.69
2023-01-08T22:22:47.061Z,98528.47
2023-01-08T22:26:51.592Z,98540.81
2023-01-08T22:30:54.566Z,98537.03
2023-01-08T22:34:57.816Z,98533.72
2023-01-08T22:39:00.937Z,98532.16
2023-01-08T22:43:05.285Z,98532.50
2023-01-08T22:47:10.145Z,98530.72
2023-01-08T22:51:13.338Z,98528.47
2023-01-08T22:55:16.555Z,98520.22
2023-01-08T22:59:21.365Z,98524.00
2023-01-08T23:03:24.499Z,98530.25
2023-01-08T23:07:27.468Z,98535.56
2023-01-08T23:11:31.302Z,98529.97
2023-01-08T23:15:35.716Z,98535.53
2023-01-08T23:19:39.192Z,98529.53
2023-01-08T23:23:42.250Z,98530.09
2023-01-08T23:27:45.686Z,98532.69
2023-01-08T23:31:50.515Z,98530.78
2023-01-08T23:35:53.779Z,98527.47
2023-01-08T23:39:56.761Z,98536.13
2023-01-08T23:44:01.100Z,98539.59
2023-01-08T23:48:07.803Z,98533.31
2023-01-08T23:52:11.308Z,98528.34
2023-01-08T23:56:14.852Z,98526.59
